KBDE/BDE METAR and TAF weather

Enter ICAO airport designator
Station Type Date Time Source
KBDE METAR 2022/01/25 03:53 UTC NOAA

KBDE 250353Z AUTO 29006KT 10SM CLR M27/M30 A3010 RMK AO2 SLP232 T12671300


Station Type Date Time Source
KBDE Decoded METAR 2022/01/25 03:53 UTC NOAA

BAUDETTE INTERNATIONAL AIRPORT, MN, United States (KBDE) 48-44N 94-37W 329M
Jan 24, 2022 - 10:53 PM EST / 2022.01.25 0353 UTC
Wind: from the WNW (290 degrees) at 7 MPH (6 KT):0
Visibility: 10 mile(s):0
Sky conditions: clear
Temperature: -16.1 F (-26.7 C)
Windchill: -32 F (-36 C):2
Dew Point: -22.0 F (-30.0 C)
Relative Humidity: 73%
Pressure (altimeter): 30.1 in. Hg (1019 hPa)
ob: KBDE 250353Z AUTO 29006KT 10SM CLR M27/M30 A3010 RMK AO2 SLP232 T12671300
cycle: 4

Station Type Date Time Source
KBDE TAF UTC NOAA

Error!

Example: see airport list